Date,TemperatureHighF,TemperatureAvgF,TemperatureLowF,DewpointHighF,DewpointAvgF,DewpointLowF,HumidityHigh,HumidityAvg,HumidityLow,PressureMaxIn,PressureMinIn,WindSpeedMaxMPH,WindSpeedAvgMPH,GustSpeedMaxMPH,PrecipitationSumIn
2013-1-4,37,36,33,33,31,27,94,83,69,0.00,40.00,19,7,26,0.00
2013-1-5,37,35,33,34,33,32,98,92,80,0.00,40.00,9,3,21,0.00
2013-1-8,36,32,30,22,19,15,70,56,50,0.00,40.00,13,7,17,0.00
2013-1-9,37,33,27,36,24,11,99,70,41,0.00,40.00,20,10,26,0.00
2013-1-10,36,34,33,34,33,30,99,93,85,0.00,40.00,13,4,22,0.00
2013-1-11,41,35,33,35,32,27,99,90,60,0.00,40.00,19,4,32,0.00
2013-1-12,41,37,33,41,37,33,99,98,94,0.00,40.00,16,5,24,0.00
2013-1-13,42,40,38,41,40,38,99,98,96,0.00,40.00,22,14,30,0.00
2013-1-14,41,38,32,40,36,29,99,92,76,0.00,40.00,30,15,45,0.00
2013-1-15,37,33,29,36,32,28,98,92,78,0.00,40.00,16,7,20,0.00
2013-1-16,37,36,36,36,36,35,98,97,94,0.00,40.00,15,-43,18,0.00
2013-1-23,39,38,37,39,38,36,99,97,94,0.00,40.00,23,12,35,0.00
2013-1-24,38,36,34,38,35,33,98,96,90,0.00,40.00,11,4,16,0.00
2013-1-25,38,33,23,33,24,15,93,69,54,0.00,40.00,14,5,21,0.00
2013-1-26,29,22,18,16,6,3,72,49,32,0.00,40.00,10,2,12,0.00
2013-1-27,23,20,14,11,8,5,74,60,46,0.00,40.00,17,5,21,0.00
2013-1-28,32,22,13,32,19,4,99,88,64,0.00,40.00,21,10,34,0.00
2013-1-29,38,35,32,38,35,32,99,99,99,0.00,40.00,21,7,34,0.00
2013-1-30,39,38,36,39,38,36,99,98,96,0.00,40.00,18,9,27,0.00
2013-1-31,37,35,33,36,34,32,99,96,91,0.00,40.00,11,-22,17,0.00
2013-2-1,40,37,34,39,37,33,99,98,96,0.00,40.00,12,5,21,0.00
2013-2-2,38,37,33,38,36,32,99,97,94,0.00,40.00,15,4,25,0.00
2013-2-3,38,37,34,36,35,33,98,92,80,0.00,40.00,21,14,30,0.00
2013-2-4,38,37,34,36,34,33,97,90,80,0.00,40.00,19,9,26,0.00
2013-2-5,42,36,34,39,33,23,98,86,60,0.00,40.00,11,2,15,0.00
2013-2-6,36,28,23,25,16,9,89,59,47,0.00,40.00,17,7,25,0.00
2013-2-7,40,32,23,36,29,21,98,87,68,0.00,40.00,17,7,23,0.00
2013-2-8,38,36,34,37,32,26,97,86,64,0.00,40.00,17,10,27,0.00
2013-2-9,42,38,33,40,36,33,99,91,80,0.00,40.00,29,14,43,0.00
2013-2-10,39,34,26,36,26,16,96,72,55,0.00,40.00,21,11,32,0.00
2013-2-11,35,28,21,34,21,10,99,75,52,0.00,40.00,19,10,26,0.00
2013-2-12,39,35,32,38,31,23,98,84,60,0.00,40.00,16,8,24,0.00
2013-2-13,36,34,32,33,30,27,96,83,72,0.00,40.00,21,8,35,0.00
2013-2-18,38,36,35,1,-2,-4,22,19,17,0.00,40.00,4,3,9,0.00
2013-2-21,33,28,25,28,21,11,93,75,48,0.00,40.00,15,5,24,0.00
2013-2-22,36,31,26,31,18,10,97,60,45,0.00,40.00,16,8,22,0.00
2013-2-23,31,31,31,31,30,30,98,96,95,0.00,40.00,12,10,21,0.00
2013-3-13,27,25,24,25,24,22,95,93,90,0.00,40.00,5,2,7,0.00
2013-3-14,35,28,21,31,24,18,99,86,64,0.00,40.00,12,3,19,0.00
2013-3-15,39,30,25,31,24,19,99,77,47,0.00,40.00,8,3,11,0.00
2013-3-16,45,29,24,27,22,19,84,75,36,0.00,40.00,6,2,7,0.00
2013-3-17,38,31,24,21,17,15,75,58,40,0.00,40.00,12,6,19,0.00
2013-3-18,33,30,24,25,19,13,82,64,49,0.00,40.00,16,6,23,0.00
2013-3-19,29,25,20,16,11,6,71,56,42,0.00,40.00,16,7,25,0.00
2013-3-20,34,28,21,14,8,1,54,43,34,0.00,40.00,20,9,29,0.00
2013-3-21,36,29,20,29,16,7,77,57,42,0.00,40.00,19,6,25,0.00
2013-3-22,36,35,34,35,32,28,98,88,76,0.00,40.00,19,12,27,0.00
2013-3-23,44,35,31,33,30,25,99,83,47,0.00,40.00,7,2,9,0.00
2013-3-24,33,32,30,32,27,6,99,84,36,0.00,40.00,25,10,31,0.00
2013-3-25,30,21,12,12,2,-3,51,44,38,0.00,40.00,21,11,30,0.00
2013-3-26,35,20,9,16,3,-6,78,47,29,0.00,40.00,17,3,23,0.00
2013-3-27,38,30,22,35,26,16,96,86,77,0.00,40.00,13,3,22,0.00
2013-3-28,39,37,35,38,35,33,99,93,89,0.00,40.00,23,15,34,0.00
2013-3-29,43,38,36,38,33,29,99,81,57,0.00,40.00,12,8,16,0.00
2013-3-30,40,37,34,36,33,-100,99,89,73,0.00,40.00,15,8,21,0.00
2013-3-31,46,36,32,34,32,28,98,85,55,0.00,40.00,7,3,12,0.00
2013-4-1,43,36,30,33,25,22,98,67,42,0.00,40.00,10,5,14,0.00
2013-4-2,46,34,29,33,27,22,97,76,41,0.00,40.00,14,5,17,0.00
2013-4-3,39,35,33,33,32,30,97,86,73,0.00,40.00,13,6,22,0.00
2013-4-4,40,36,34,33,31,27,93,80,67,0.00,40.00,13,6,27,0.00
2013-4-5,43,37,32,30,27,25,81,67,52,0.00,40.00,11,-16,19,0.00
2013-4-6,42,35,30,32,27,23,92,72,46,0.00,40.00,11,4,13,0.00
2013-4-7,31,27,24,28,12,1,89,55,28,0.00,40.00,10,5,17,0.00
2013-4-8,28,23,17,17,10,4,77,59,46,0.00,40.00,14,10,19,0.00
2013-4-9,19,16,14,8,4,1,65,57,47,0.00,40.00,21,9,32,0.00
2013-4-10,25,19,15,9,5,1,63,54,50,0.00,40.00,14,8,20,0.00
2013-4-11,28,21,14,20,11,5,89,67,50,0.00,40.00,14,6,17,0.00
2013-4-12,34,24,16,15,10,7,83,57,39,0.00,40.00,11,4,15,0.00
2013-4-13,34,28,20,15,11,8,66,49,37,0.00,40.00,13,5,22,0.00
2013-4-14,44,34,25,28,16,9,75,49,36,0.00,40.00,11,5,17,0.00
2013-4-15,44,36,32,33,27,21,96,70,41,0.00,40.00,11,6,16,0.00
2013-4-16,41,36,30,33,24,13,94,64,37,0.00,40.00,17,10,27,0.00
2013-4-17,44,34,26,27,21,12,88,60,27,0.00,40.00,9,3,15,0.00
2013-4-18,44,34,26,27,24,20,89,67,43,0.00,40.00,11,5,15,0.00
2013-4-19,45,36,29,31,26,21,92,66,42,0.00,40.00,9,3,11,0.00
2013-4-20,39,34,32,33,31,26,99,89,60,0.00,40.00,15,4,24,0.00
2013-4-21,40,35,32,35,31,27,99,86,59,0.00,40.00,29,14,43,0.00
2013-4-22,39,36,35,37,34,29,99,92,77,0.00,40.00,14,10,22,0.00
2013-4-23,42,39,37,40,38,36,99,97,89,0.00,40.00,13,8,19,0.00
2013-4-24,53,41,35,41,38,34,98,87,62,0.00,40.00,17,6,21,0.00
2013-4-25,45,41,38,36,22,15,73,47,34,0.00,40.00,23,14,34,0.00
2013-4-26,48,40,34,23,16,11,55,37,27,0.00,40.00,21,8,31,0.00
2013-4-27,41,37,33,29,22,17,83,56,44,0.00,40.00,21,10,30,0.00
2013-4-28,43,38,33,20,19,17,53,44,37,0.00,40.00,22,8,28,0.00
2013-4-29,47,40,32,29,25,20,76,56,40,0.00,40.00,10,5,14,0.00
2013-4-30,45,38,33,35,31,27,95,75,58,0.00,40.00,12,5,16,0.00
2013-5-1,42,36,33,38,35,33,99,95,82,0.00,40.00,18,9,26,0.00
2013-5-2,42,40,37,41,39,36,99,97,92,0.00,40.00,17,11,26,0.00
2013-5-3,42,39,32,42,38,32,99,98,89,0.00,40.00,17,9,22,0.00
2013-5-4,45,37,32,35,30,21,99,79,44,0.00,40.00,12,-14,20,0.00
2013-5-5,43,37,30,30,25,20,80,61,51,0.00,40.00,14,6,19,0.00
2013-5-6,45,38,31,33,30,27,84,74,59,0.00,40.00,15,6,19,0.00
2013-5-7,40,37,34,35,32,29,91,80,65,0.00,40.00,14,6,17,0.00
2013-5-8,42,38,36,40,35,32,96,87,73,0.00,40.00,7,2,9,0.00
2013-5-9,43,39,36,38,36,35,98,90,74,0.00,40.00,9,4,14,0.00
2013-5-10,54,43,38,40,33,-100,99,72,36,0.00,40.00,19,11,28,0.00
2013-5-11,46,42,40,42,40,-100,99,95,80,0.00,40.00,17,12,30,0.00
2013-5-12,50,45,42,43,40,35,97,82,64,0.00,40.00,15,10,23,0.00
2013-5-13,56,48,38,37,34,28,83,60,34,0.00,40.00,11,5,13,0.00
2013-5-14,49,43,36,34,30,22,87,62,37,0.00,40.00,9,4,14,0.00
2013-5-15,44,38,34,38,33,26,98,80,56,0.00,40.00,12,5,18,0.00
2013-5-16,44,38,35,42,22,-100,99,92,76,0.00,40.00,12,6,19,0.00
2013-5-17,43,39,32,34,22,-100,79,57,42,0.00,40.00,17,9,22,0.00
2013-5-18,43,34,27,15,12,8,53,40,25,0.00,40.00,16,6,23,0.00
2013-5-19,45,38,28,26,20,13,64,48,37,0.00,40.00,17,7,23,0.00
2013-5-20,44,40,33,39,31,25,93,69,55,0.00,40.00,17,7,21,0.00
2013-5-21,42,41,40,41,40,38,99,94,88,0.00,40.00,21,11,25,0.00
2013-5-22,44,42,41,43,42,40,99,98,94,0.00,40.00,15,10,22,0.00
2013-5-23,46,43,41,45,42,41,98,96,84,0.00,40.00,12,5,14,0.00
2013-5-24,54,46,40,44,41,40,98,83,64,0.00,40.00,16,8,18,0.00
2013-5-25,46,41,37,42,39,37,99,92,73,0.00,40.00,17,8,21,0.00
2013-5-26,44,42,39,43,40,38,97,95,88,0.00,40.00,9,5,19,0.00
2013-5-27,45,43,42,43,42,40,98,95,81,0.00,40.00,11,5,18,0.00
2013-5-28,54,46,41,43,41,39,98,84,62,0.00,40.00,18,9,21,0.00
2013-5-29,61,52,45,44,42,38,92,68,46,0.00,40.00,21,13,26,0.00
2013-5-30,50,44,40,43,42,40,99,93,76,0.00,40.00,21,14,26,0.00
2013-5-31,51,45,42,44,43,41,98,91,74,0.00,40.00,10,5,15,0.00
2013-6-1,48,45,43,45,42,36,98,90,72,0.00,40.00,22,9,27,0.00
2013-6-2,46,44,43,45,43,40,97,95,84,0.00,40.00,9,4,17,0.00
2013-6-3,45,44,43,44,43,41,98,96,91,0.00,40.00,14,8,26,0.00
2013-6-4,47,44,42,45,43,41,98,96,86,0.00,40.00,11,4,13,0.00
2013-6-5,48,44,42,44,42,40,97,89,75,0.00,40.00,11,4,18,0.00
2013-6-6,44,44,43,44,42,40,98,94,87,0.00,40.00,26,13,40,0.00
2013-6-7,62,51,44,42,38,35,90,62,38,0.00,40.00,13,4,16,0.00
2013-6-8,68,54,44,47,42,36,90,65,31,0.00,40.00,17,10,20,0.00
2013-6-9,67,62,54,41,38,35,54,41,35,0.00,40.00,15,9,18,0.00
2013-6-10,67,58,49,42,40,38,66,51,38,0.00,40.00,17,8,19,0.00
2013-6-11,70,60,51,48,44,40,83,56,38,0.00,40.00,16,9,19,0.00
2013-6-12,58,48,44,49,45,43,99,88,69,0.00,40.00,21,12,26,0.00
2013-6-13,54,48,44,49,46,43,98,93,76,0.00,40.00,11,6,13,0.00
2013-6-14,61,52,43,49,46,41,98,83,48,0.00,40.00,22,12,23,0.00
2013-6-15,61,52,44,51,47,44,98,83,61,0.00,40.00,15,6,17,0.00
2013-6-16,70,61,51,50,46,37,90,60,30,0.00,40.00,15,8,17,0.00
2013-6-17,77,66,56,50,47,44,73,51,35,0.00,40.00,13,8,16,0.00
2013-6-18,74,61,49,53,48,43,97,65,43,0.00,40.00,14,9,20,0.00
2013-6-19,54,50,46,50,48,45,98,93,75,0.00,40.00,11,-8,23,0.00
2013-6-20,49,46,45,45,43,39,97,89,71,0.00,40.00,13,6,17,0.00
2013-6-22,47,46,44,45,44,42,98,94,91,0.00,40.00,21,12,27,0.00
2013-6-23,50,47,46,48,46,44,99,95,92,0.00,40.00,9,5,19,0.00
2013-6-24,56,50,47,51,48,47,99,96,79,0.00,40.00,11,6,16,0.00
2013-6-25,66,58,48,54,48,46,97,72,51,0.00,40.00,17,7,20,0.00
2013-6-26,74,61,52,55,52,49,97,73,49,0.00,40.00,13,8,15,0.00
2013-6-27,57,52,49,52,50,49,99,92,77,0.00,40.00,17,8,20,0.00
2013-6-28,57,52,48,54,50,46,98,91,71,0.00,40.00,17,11,21,0.00
2013-6-29,60,54,47,50,49,47,98,83,68,0.00,40.00,19,12,21,0.00
2013-6-30,50,49,48,48,47,45,98,94,86,0.00,40.00,24,12,30,0.00
2013-7-1,51,49,47,51,47,40,98,94,69,0.00,40.00,22,11,30,0.00
2013-7-2,54,50,44,47,44,40,94,82,69,0.00,40.00,14,7,18,0.00
2013-7-3,51,48,44,48,46,44,98,92,83,0.00,40.00,23,11,29,0.00
2013-7-4,49,48,46,48,47,46,99,96,90,0.00,40.00,20,14,29,0.00
2013-7-5,50,48,47,48,47,47,99,97,90,0.00,40.00,22,12,26,0.00
2013-7-6,49,47,46,48,47,46,98,98,98,0.00,40.00,20,10,24,0.00
2013-7-7,50,48,46,49,46,45,98,94,86,0.00,40.00,18,9,22,0.00
2013-7-8,58,52,46,48,44,-100,96,75,55,0.00,40.00,12,7,17,0.00
2013-7-9,62,52,45,48,45,42,97,78,52,0.00,40.00,15,6,17,0.00
2013-7-10,66,59,51,53,44,-100,87,61,48,0.00,40.00,14,8,17,0.00
2013-7-11,68,60,52,51,49,48,90,68,50,0.00,40.00,14,7,17,0.00
2013-7-12,62,55,50,54,50,46,98,83,69,0.00,40.00,16,10,19,0.00
2013-7-13,60,52,43,56,51,42,98,95,82,0.00,40.00,12,4,17,0.00
2013-7-14,59,54,51,55,52,50,97,93,82,0.00,40.00,12,5,14,0.00
2013-7-15,58,53,50,54,51,49,98,93,80,0.00,40.00,19,11,22,0.00
2013-7-16,71,61,54,59,55,53,97,81,55,0.00,40.00,16,5,20,0.00
2013-7-17,69,64,60,59,57,56,90,78,66,0.00,40.00,24,-8,28,0.00
2013-7-18,70,64,58,59,58,56,94,81,65,0.00,40.00,23,13,27,0.00
2013-7-19,74,67,62,57,52,48,69,59,38,0.00,40.00,14,7,20,0.00
2013-7-20,72,64,56,54,50,-100,80,62,47,0.00,40.00,14,7,26,0.00
2013-7-21,72,62,51,52,50,46,92,66,43,0.00,40.00,12,5,15,0.00
2013-7-22,73,65,57,50,48,46,67,53,42,0.00,40.00,17,7,22,0.00
2013-7-23,70,61,55,56,51,47,95,70,58,0.00,40.00,16,10,20,0.00
2013-7-24,69,61,54,57,54,51,97,76,57,0.00,40.00,19,11,21,0.00
2013-7-25,70,64,55,58,55,52,95,74,58,0.00,40.00,14,8,16,0.00
2013-7-26,63,58,54,57,55,53,98,90,78,0.00,40.00,11,4,15,0.00
2013-7-27,59,55,54,56,54,53,98,96,88,0.00,40.00,11,6,13,0.00
2013-7-28,59,55,53,55,53,52,97,93,83,0.00,40.00,18,12,21,0.00
2013-7-29,61,57,52,56,53,51,98,88,71,0.00,40.00,16,10,19,0.00
2013-7-30,62,55,50,55,52,49,98,90,74,0.00,40.00,22,12,27,0.00
2013-7-31,58,55,51,57,54,51,98,96,88,0.00,40.00,16,8,22,0.00
2013-8-1,57,55,53,55,53,52,97,94,91,0.00,40.00,14,6,28,0.00
2013-8-2,56,54,53,54,53,52,97,96,91,0.00,40.00,24,6,41,0.00
2013-8-3,54,52,51,53,52,51,99,97,91,0.00,40.00,26,15,49,0.00
2013-8-4,56,53,51,54,52,51,99,97,86,0.00,40.00,19,12,21,0.00
2013-8-5,54,53,52,53,52,49,98,96,88,0.00,40.00,26,10,49,0.00
2013-8-6,54,53,51,54,52,50,98,94,90,0.00,40.00,31,15,55,0.00
2013-8-7,53,52,48,52,50,47,97,95,90,0.00,40.00,25,12,37,0.00
2013-8-8,53,50,47,52,49,45,97,95,91,0.00,40.00,18,11,32,0.00
2013-8-9,57,53,50,52,51,47,98,93,81,0.00,40.00,21,13,26,0.00
2013-8-10,55,52,49,51,50,47,97,91,78,0.00,40.00,19,12,24,0.00
2013-8-11,56,53,50,52,50,48,98,91,80,0.00,40.00,11,5,16,0.00
2013-8-12,58,54,52,55,52,50,97,94,89,0.00,40.00,10,-22,12,0.00
2013-8-13,58,53,51,53,49,-100,97,89,72,0.00,40.00,16,6,18,0.00
2013-8-14,58,53,48,53,50,-100,98,91,71,0.00,40.00,17,9,22,0.00
2013-8-15,55,50,50,53,42,-100,98,86,72,0.00,40.00,21,12,24,0.00
2013-8-16,55,51,48,54,48,-100,98,94,82,0.00,40.00,9,3,17,0.00
2013-8-17,58,52,51,52,50,-100,98,93,70,0.00,40.00,16,6,26,0.00
2013-8-18,68,58,52,55,53,52,99,84,60,0.00,40.00,16,-32,26,0.00
2013-8-19,62,53,51,58,47,-100,97,94,77,0.00,40.00,15,6,19,0.00
2013-8-20,55,53,51,51,50,49,97,91,79,0.00,40.00,12,6,14,0.00
2013-8-21,61,56,52,56,52,50,97,88,77,0.00,40.00,13,8,16,0.00
2013-8-22,59,56,54,58,55,53,98,95,90,0.00,40.00,12,5,14,0.00
2013-8-23,66,58,50,55,51,48,97,80,57,0.00,40.00,12,-86,14,0.00
2013-8-24,67,58,50,48,43,-100,91,60,41,0.00,40.00,14,-38,20,0.00
2013-8-25,64,57,48,52,46,42,92,66,44,0.00,40.00,10,-246,14,0.00
2013-8-26,57,53,50,52,51,49,97,91,79,0.00,40.00,9,-38,12,0.00
2013-8-27,62,52,49,51,49,47,96,88,63,0.00,40.00,6,2,10,0.00
2013-8-28,54,51,48,51,50,47,98,95,81,0.00,40.00,7,3,11,0.00
2013-8-29,57,53,50,55,52,49,98,96,92,0.00,40.00,13,6,22,0.00
2013-8-30,67,57,52,54,52,49,98,84,56,0.00,40.00,17,-34,20,0.00
2013-8-31,59,54,52,53,50,-100,96,86,70,0.00,40.00,21,-13,22,0.00
2013-9-1,57,53,49,54,51,48,99,91,72,0.00,40.00,23,-11,30,0.00
2013-9-2,54,53,52,54,52,50,99,97,90,0.00,40.00,22,14,35,0.00
2013-9-3,54,52,50,53,50,48,98,94,88,0.00,40.00,28,15,39,0.00
2013-9-4,56,51,48,51,46,40,97,83,60,0.00,40.00,19,11,26,0.00
2013-9-5,54,51,48,48,46,42,97,84,71,0.00,40.00,13,7,19,0.00
2013-9-6,55,52,49,55,50,47,99,93,74,0.00,40.00,22,9,40,0.00
2013-9-7,55,51,48,52,48,-100,98,91,77,0.00,40.00,11,4,13,0.00
2013-9-8,53,50,46,50,47,41,98,88,73,0.00,40.00,22,12,34,0.00
2013-9-9,53,52,50,53,52,49,98,98,97,0.00,40.00,22,-11,35,0.00
2013-9-10,57,53,50,52,49,47,98,88,68,0.00,40.00,13,8,17,0.00
2013-9-11,58,51,47,50,46,42,97,82,56,0.00,40.00,12,5,17,0.00
2013-9-12,52,50,47,51,47,42,98,88,76,0.00,40.00,27,14,45,0.00
2013-9-13,56,51,48,51,49,46,98,92,75,0.00,40.00,16,6,21,0.00
2013-9-14,54,50,48,51,47,-100,97,91,76,0.00,40.00,11,6,18,0.00
2013-9-15,63,56,47,47,39,33,93,57,34,0.00,40.00,19,7,24,0.00
2013-9-16,61,52,45,40,38,35,74,59,43,0.00,40.00,12,7,18,0.00
2013-9-17,57,48,40,40,38,36,89,68,46,0.00,40.00,10,5,15,0.00
2013-9-18,49,42,39,44,39,37,96,89,77,0.00,40.00,7,4,7,0.00
2013-9-19,55,45,37,40,31,23,96,62,29,0.00,40.00,13,4,17,0.00
2013-9-20,55,46,35,45,33,24,99,62,41,0.00,40.00,16,7,21,0.00
2013-9-21,46,44,42,46,37,-100,99,80,46,0.00,40.00,23,14,39,0.00
2013-9-22,48,45,41,27,18,13,50,34,28,0.00,40.00,26,14,45,0.00
2013-9-23,51,44,37,27,22,20,63,40,29,0.00,40.00,21,11,32,0.00
2013-9-24,49,42,33,47,34,25,96,72,56,0.00,40.00,18,6,26,0.00
2013-9-25,50,48,47,49,47,40,99,95,71,0.00,40.00,24,14,45,0.00
2013-9-26,55,47,43,47,43,39,98,85,56,0.00,40.00,19,8,31,0.00
2013-9-27,51,47,44,47,44,37,98,90,64,0.00,40.00,26,12,39,0.00
2013-9-28,51,47,43,41,35,-100,79,65,50,0.00,40.00,20,8,32,0.00
2013-9-29,47,42,38,27,25,23,58,50,42,0.00,40.00,20,9,37,0.00
2013-9-30,47,43,40,27,25,23,52,48,43,0.00,40.00,21,11,42,0.00
2013-10-1,48,42,37,35,32,29,90,69,48,0.00,40.00,12,5,20,0.00
2013-10-2,46,41,37,43,37,32,96,84,58,0.00,40.00,9,-18,21,0.00
2013-10-3,46,45,43,46,43,40,99,95,78,0.00,40.00,33,-5,57,0.00
2013-10-4,57,47,43,46,43,37,99,84,49,0.00,40.00,11,5,17,0.00
2013-10-5,45,42,38,42,39,34,97,89,68,0.00,40.00,17,6,26,0.00
2013-10-6,51,44,38,41,37,32,98,78,49,0.00,40.00,14,6,22,0.00
2013-10-7,48,46,42,47,41,36,99,85,68,0.00,40.00,19,10,27,0.00
2013-10-8,51,47,43,48,42,29,99,84,47,0.00,40.00,26,16,35,0.00
2013-10-9,51,47,44,40,30,23,87,53,41,0.00,40.00,19,11,32,0.00
2013-10-10,47,46,42,46,44,40,99,96,87,0.00,40.00,20,14,30,0.00
2013-10-11,47,45,40,45,42,38,97,91,80,0.00,40.00,17,10,34,0.00
2013-10-12,47,46,46,46,44,-100,98,95,92,0.00,40.00,23,14,41,0.00
2013-10-13,46,45,42,45,42,39,95,89,82,0.00,40.00,16,11,28,0.00
2013-10-14,47,44,40,43,40,36,97,85,70,0.00,40.00,19,-30,24,0.00
2013-10-15,48,47,46,47,46,46,99,99,98,0.00,40.00,22,-333,34,0.00
2013-10-16,50,50,50,48,48,48,93,92,92,0.00,40.00,18,-629,29,0.00
2013-10-17,50,48,46,48,47,45,99,96,92,0.00,40.00,22,12,29,0.00
2013-10-18,48,46,42,47,43,35,99,91,69,0.00,40.00,22,-2,40,0.00
2013-10-19,47,45,44,46,40,-100,98,85,76,0.00,40.00,29,16,40,0.00
2013-10-20,46,44,40,39,38,34,92,79,66,0.00,40.00,19,12,32,0.00
2013-10-21,44,40,35,39,37,31,95,88,71,0.00,40.00,14,8,22,0.00
2013-10-22,44,39,34,36,33,31,92,81,65,0.00,40.00,9,3,14,0.00
2013-10-23,47,41,36,39,36,33,96,83,59,0.00,40.00,12,3,27,0.00
2013-10-24,47,45,42,47,42,39,99,89,77,0.00,40.00,29,16,50,0.00
2013-10-25,47,44,41,42,39,35,91,81,65,0.00,40.00,17,9,21,0.00
2013-10-26,46,41,36,43,35,-100,95,81,69,0.00,40.00,16,5,45,0.00
2013-10-27,51,47,44,51,46,43,99,98,95,0.00,40.00,21,8,41,0.00
2013-10-28,51,45,38,50,41,-100,99,88,67,0.00,40.00,26,15,40,0.00
2013-10-29,46,42,36,46,40,33,99,92,80,0.00,40.00,19,7,45,0.00
2013-10-30,48,44,40,45,38,34,99,80,60,0.00,40.00,24,-68,35,0.00
2013-10-31,46,43,40,35,32,28,75,63,51,0.00,40.00,14,-40,21,0.00
2013-11-1,43,38,32,31,27,24,75,65,53,0.00,40.00,9,-34,12,0.00
2013-11-2,46,41,33,45,37,-100,98,89,65,0.00,40.00,14,9,21,0.00
2013-11-3,44,43,41,44,42,39,98,95,88,0.00,40.00,12,6,19,0.00
2013-11-4,44,40,37,40,37,34,98,90,70,0.00,40.00,12,4,16,0.00
2013-11-5,46,42,33,35,25,16,71,50,34,0.00,40.00,25,9,30,0.00
2013-11-6,40,35,30,39,24,17,96,65,51,0.00,40.00,10,4,17,0.00
2013-11-7,46,41,37,42,37,31,98,85,68,0.00,40.00,16,7,24,0.00
2013-11-8,45,40,37,35,28,23,89,62,41,0.00,40.00,15,7,20,0.00
2013-11-9,50,46,42,38,35,-100,74,66,61,0.00,40.00,14,8,21,0.00
2013-11-10,45,43,38,44,39,19,99,86,46,0.00,40.00,24,12,34,0.00
2013-11-11,39,34,31,26,19,16,66,53,44,0.00,40.00,18,-13,27,0.00
2013-11-12,41,35,30,21,13,9,52,41,29,0.00,40.00,18,8,27,0.00
2013-11-13,57,43,37,45,35,21,87,73,51,0.00,40.00,17,6,26,0.00
2013-11-14,57,52,43,47,42,33,74,69,63,0.00,40.00,21,11,31,0.00
2013-11-15,48,44,41,39,34,29,75,66,58,0.00,40.00,12,6,17,0.00
2013-11-16,46,34,28,38,17,-100,91,51,38,0.00,40.00,27,10,32,0.00
2013-11-17,28,26,22,13,11,9,64,54,44,0.00,40.00,16,8,22,0.00
2013-11-18,30,23,19,16,13,10,72,65,55,0.00,40.00,7,2,12,0.00
2013-11-19,26,22,18,20,16,13,86,79,72,0.00,40.00,4,2,6,0.00
2013-11-20,32,28,23,32,26,18,99,91,77,0.00,40.00,19,7,35,0.00
2013-11-21,45,39,32,45,38,31,99,99,98,0.00,40.00,24,12,37,0.00
2013-11-22,39,31,26,38,21,8,99,66,42,0.00,40.00,20,9,29,0.00
2013-11-23,39,32,24,36,25,-100,96,78,64,0.00,40.00,14,8,21,0.00
2013-11-24,40,39,36,36,35,31,93,82,69,0.00,40.00,24,13,33,0.00
2013-11-25,39,37,34,37,35,31,97,92,86,0.00,40.00,10,4,17,0.00
2013-11-26,37,34,32,32,30,29,92,86,79,0.00,40.00,4,2,6,0.00
2013-11-27,41,33,29,30,25,20,90,72,45,0.00,40.00,9,3,11,0.00
2013-11-28,32,25,19,22,9,2,77,50,34,0.00,40.00,17,5,25,0.00
2013-11-29,28,22,18,9,6,3,64,50,42,0.00,40.00,7,3,10,0.00
2013-11-30,27,21,17,15,12,-100,81,68,58,0.00,40.00,23,8,31,0.00
2013-12-1,34,28,24,17,11,4,59,48,34,0.00,40.00,9,2,14,0.00
2013-12-2,36,32,26,31,24,11,86,73,47,0.00,40.00,10,4,13,0.00
2013-12-3,38,37,35,36,32,28,95,82,68,0.00,40.00,13,6,19,0.00
2013-12-4,41,39,37,40,39,36,98,98,92,0.00,40.00,10,2,19,0.00
2013-12-5,42,41,39,42,40,39,98,98,98,0.00,40.00,5,1,9,0.00
2013-12-6,45,41,38,44,41,37,98,97,94,0.00,40.00,9,3,17,0.00
2013-12-7,40,38,38,37,33,-100,94,83,73,0.00,40.00,9,3,17,0.00
2013-12-8,41,40,38,40,34,31,97,81,68,0.00,40.00,10,5,16,0.00
2013-12-9,40,38,35,40,37,35,98,98,97,0.00,40.00,12,3,13,0.00
2013-12-10,40,38,37,39,38,36,99,98,97,0.00,40.00,19,-12,34,0.00
2013-12-11,40,35,30,39,26,16,98,71,49,0.00,40.00,19,4,32,0.00
2013-12-12,30,25,20,20,17,11,76,70,60,0.00,40.00,7,-238,10,0.00
2013-12-13,27,24,18,21,19,14,89,80,73,0.00,40.00,11,-22,21,0.00
2013-12-14,26,20,14,19,9,-100,75,62,52,0.00,40.00,17,7,27,0.00
2013-12-15,19,16,13,5,3,1,64,55,50,0.00,40.00,14,7,21,0.00
2013-12-16,21,16,12,12,7,1,79,66,56,0.00,40.00,10,2,15,0.00
2013-12-17,24,20,15,17,12,9,89,71,60,0.00,40.00,7,2,9,0.00
2013-12-18,33,26,20,32,23,16,96,87,78,0.00,40.00,16,3,24,0.00
2013-12-25,31,30,29,29,27,26,92,89,83,0.00,40.00,7,-90,10,0.00
2013-12-26,33,32,31,32,31,30,95,94,94,0.00,40.00,7,-183,10,0.00
2013-12-27,39,37,36,37,37,35,99,98,91,0.00,40.00,9,4,12,0.00
2013-12-28,39,34,31,36,32,-100,97,94,87,0.00,40.00,9,2,12,0.00
2013-12-29,37,35,33,37,35,32,98,98,97,0.00,40.00,9,4,12,0.00
2013-12-30,37,36,34,37,36,34,98,98,98,0.00,40.00,7,3,9,0.00
2013-12-31,41,37,33,40,35,31,98,90,70,0.00,40.00,27,11,52,0.00
2014-1-1,39,38,35,37,32,25,95,78,58,0.00,40.00,21,13,37,0.00
2014-1-2,40,38,36,35,26,21,91,62,47,0.00,40.00,16,12,25,0.00